If you wish to contribute or participate in the discussions about articles you are invited to join SKYbrary as a registered user

 Actions

Bardufoss

From SKYbrary Wiki

ENDU
Airport
ICAO: ENDU
Summary
Name Bardufoss
Region Europe
Territory Norway NO.gif
Location Bardufoss
Serving
Coordinates 69° 3' 21.08" N, 18° 32' 20.60" E
Runways
Designator Length Width Surface ROPS
10/28 2443 m8,015.092 ft
45 m147.638 ft
ASP yes/yes


METAR
Observation ENDU 202220Z AUTO VRB01KT 8000 -SN FEW068/// M23/M25 Q1018 RMK WIND 1100FT 17007KT WIND 2200FT 20010KT
Station Bardufoss
Date/Time 20 February 2019 22:20:00
Wind direction °
Wind speed 01 kts
Lowest cloud amount few clouds
Temperature
Dew point
Humidity 83%
QNH 1018 hPa
Weather condition n/a

CFIT
Tag(s) Altimeter Temperature Error Correction
GND
Tag(s) Aircraft Ground De/Anti Icing
RE
Tag(s) Landing on Contaminated Runways
WX
Tag(s) Low Level Turbulence

Bardufoss Airport

ICAO: ENDU IATA: BDU

Description

Civil/Military (RNoAF) airport serving the Målselvdalen valley region of northern Norway.

Climatology

Subarctic climate (Köppen climate classification Dfc) - Although not far from the coast, Bardufoss and Målselvdalen is known for a somewhat more continental climate, and hence, colder winters (but with less humidity and little wind) compared to the coastal areas.

Maps

Terrain

Loading map...

Airport Layout

Loading map...


Accidents & Serious Incidents at or in vicinity of ENDU

None on SKYbrary